Time;durP1;ratioP1;P1;durP2;ratioP2;P2;SDS_P1;SDS_P2;PMS_P1;PMS_P2;Temp;Humidity;BMP_temperature;BMP_pressure;BME280_temperature;BME280_humidity;BME280_pressure;Samples;Min_cycle;Max_cycle;Signal;HPM_P1;HPM_P2
2022/12/25 00:01:11;;;;;;;13.05;6.10;;;;;;;;;;5968521;23;20007;-89
2022/12/25 00:03:37;;;;;;;13.30;5.40;;;;;;;;;;5967006;23;20019;-89
2022/12/25 00:06:08;;;;;;;13.90;5.47;;;;;;;;;;5981312;23;20396;-89
2022/12/25 00:08:37;;;;;;;11.48;5.53;;;;;;;;;;5970146;23;20023;-89
2022/12/25 00:11:11;;;;;;;15.80;6.50;;;;;;;;;;5980123;23;20035;-90
2022/12/25 00:13:39;;;;;;;15.35;6.10;;;;;;;;;;6028278;23;20339;-89
2022/12/25 00:16:10;;;;;;;12.95;5.78;;;;;;;;;;6004043;23;20462;-90
2022/12/25 00:18:41;;;;;;;12.60;5.90;;;;;;;;;;5981022;23;20030;-89
2022/12/25 00:21:07;;;;;;;12.85;6.10;;;;;;;;;;5980362;23;20078;-90
2022/12/25 00:23:33;;;;;;;11.98;5.88;;;;;;;;;;5990761;23;20121;-90
2022/12/25 00:26:02;;;;;;;15.35;6.18;;;;;;;;;;5980068;23;20129;-91
2022/12/25 00:28:28;;;;;;;13.45;5.72;;;;;;;;;;5966754;23;20742;-89
2022/12/25 00:30:53;;;;;;;12.32;5.80;;;;;;;;;;6004792;23;20074;-89
2022/12/25 00:33:19;;;;;;;15.63;5.88;;;;;;;;;;5981575;23;20011;-90
2022/12/25 00:35:55;;;;;;;13.85;5.88;;;;;;;;;;5984981;23;20023;-90
2022/12/25 00:38:20;;;;;;;10.00;5.43;;;;;;;;;;5981197;23;20059;-90
2022/12/25 00:40:48;;;;;;;13.65;6.15;;;;;;;;;;5992411;23;20027;-89
2022/12/25 00:43:13;;;;;;;15.27;6.03;;;;;;;;;;6004680;23;20023;-90
2022/12/25 00:45:38;;;;;;;14.63;6.00;;;;;;;;;;5980133;23;20086;-89
2022/12/25 00:48:06;;;;;;;14.25;6.35;;;;;;;;;;5980606;23;20359;-90
2022/12/25 00:50:32;;;;;;;15.77;6.35;;;;;;;;;;5980634;23;20032;-91
2022/12/25 00:52:57;;;;;;;21.05;6.68;;;;;;;;;;5981275;23;20023;-88
2022/12/25 00:55:23;;;;;;;15.30;6.47;;;;;;;;;;6004483;23;20024;-89
2022/12/25 00:57:48;;;;;;;13.05;6.10;;;;;;;;;;5981267;23;20019;-88
2022/12/25 01:00:17;;;;;;;14.10;6.60;;;;;;;;;;6002778;23;20038;-87
2022/12/25 01:02:42;;;;;;;14.63;6.30;;;;;;;;;;5981277;23;20023;-87
2022/12/25 01:05:08;;;;;;;13.23;6.00;;;;;;;;;;5980278;23;20015;-88
2022/12/25 01:07:33;;;;;;;15.60;6.43;;;;;;;;;;5980079;23;20027;-86
2022/12/25 01:12:45;;;;;;;15.82;5.65;;;;;;;;;;6007365;23;20046;-88
2022/12/25 01:15:13;;;;;;;13.20;7.03;;;;;;;;;;5979806;23;20015;-88
2022/12/25 01:17:39;;;;;;;18.27;6.50;;;;;;;;;;5980373;23;20019;-88
2022/12/25 01:20:05;;;;;;;16.50;7.60;;;;;;;;;;5985440;23;20019;-90
2022/12/25 01:22:30;;;;;;;13.40;6.00;;;;;;;;;;5972027;23;20442;-88
2022/12/25 01:24:55;;;;;;;16.08;6.07;;;;;;;;;;5981101;23;20475;-88
2022/12/25 01:27:21;;;;;;;13.55;6.07;;;;;;;;;;5979999;23;20106;-88
2022/12/25 01:29:46;;;;;;;14.98;5.45;;;;;;;;;;5980837;23;20020;-87
2022/12/25 01:32:13;;;;;;;16.38;6.00;;;;;;;;;;5980537;23;20354;-88
2022/12/25 01:34:38;;;;;;;12.13;5.05;;;;;;;;;;5980655;23;20089;-88
2022/12/25 01:37:04;;;;;;;10.43;4.68;;;;;;;;;;6038448;23;20074;-88
2022/12/25 01:39:29;;;;;;;15.38;5.95;;;;;;;;;;5981032;23;20440;-87
2022/12/25 01:41:55;;;;;;;16.77;5.75;;;;;;;;;;5962399;23;20062;-86
2022/12/25 01:44:36;;;;;;;19.10;6.05;;;;;;;;;;5998305;23;20015;-88
2022/12/25 01:47:05;;;;;;;16.27;5.53;;;;;;;;;;6005860;23;20023;-89
2022/12/25 01:49:32;;;;;;;13.93;5.38;;;;;;;;;;6006075;23;20110;-88
2022/12/25 01:52:00;;;;;;;12.27;5.63;;;;;;;;;;6005051;23;20012;-89
2022/12/25 01:54:26;;;;;;;;;;;;;;;;;;5983673;23;20024;-89
2022/12/25 01:56:54;;;;;;;12.60;5.18;;;;;;;;;;5982553;23;20327;-88
2022/12/25 01:59:21;;;;;;;9.90;4.90;;;;;;;;;;5982564;23;20023;-89
2022/12/25 02:01:46;;;;;;;12.35;5.38;;;;;;;;;;5982159;23;20049;-89
2022/12/25 02:04:24;;;;;;;14.38;5.95;;;;;;;;;;5982462;23;20343;-89
2022/12/25 02:06:50;;;;;;;11.02;5.03;;;;;;;;;;5982288;23;20015;-90
2022/12/25 02:09:17;;;;;;;15.85;5.20;;;;;;;;;;5969119;23;20039;-89
2022/12/25 02:11:57;;;;;;;12.27;5.85;;;;;;;;;;6028418;23;20027;-89
2022/12/25 02:14:24;;;;;;;13.63;5.68;;;;;;;;;;6002334;23;20082;-90
2022/12/25 02:17:21;;;;;;;14.63;6.23;;;;;;;;;;5977908;23;20015;-91
2022/12/25 02:19:55;;;;;;;13.77;5.93;;;;;;;;;;5999739;23;20023;-92
2022/12/25 02:22:48;;;;;;;15.15;5.68;;;;;;;;;;5996410;23;20101;-90
2022/12/25 02:25:31;;;;;;;13.75;5.60;;;;;;;;;;5984823;23;20026;-90
2022/12/25 02:28:10;;;;;;;12.50;5.65;;;;;;;;;;5996181;23;20026;-90
2022/12/25 02:30:43;;;;;;;14.80;5.47;;;;;;;;;;5974527;23;20024;-91
2022/12/25 02:36:03;;;;;;;13.23;6.03;;;;;;;;;;5996716;23;20112;-92
2022/12/25 02:38:38;;;;;;;10.90;4.93;;;;;;;;;;5989498;23;20409;-91
2022/12/25 02:41:14;;;;;;;12.15;5.00;;;;;;;;;;5977765;23;20050;-92
2022/12/25 03:08:29;;;;;;;11.48;4.72;;;;;;;;;;5799163;24;20108;-91
2022/12/25 03:18:50;;;;;;;10.43;4.47;;;;;;;;;;5830575;24;20028;-93
2022/12/25 03:32:23;;;;;;;11.15;4.03;;;;;;;;;;5867619;24;20025;-92
2022/12/25 04:52:59;;;;;;;10.68;4.85;;;;;;;;;;5292941;24;4980470;-91
2022/12/25 05:03:29;;;;;;;;;;;;;;;;;;;;;
2022/12/25 05:09:50;;;;;;;14.85;5.28;;;;;;;;;;5531480;24;4996509;-91
2022/12/25 05:12:47;;;;;;;;;;;;;;;;;;;;;
2022/12/25 05:15:32;;;;;;;;;;;;;;;;;;5738995;24;20422;-91
2022/12/25 05:22:45;;;;;;;;;;;;;;;;;;;;;
2022/12/25 05:28:33;;;;;;;;;;;;;;;;;;5729322;24;20019;-89
2022/12/25 05:49:04;;;;;;;13.23;5.30;;;;;;;;;;5677541;24;20090;-90
2022/12/25 05:52:21;;;;;;;11.15;5.15;;;;;;;;;;5655571;25;20482;-89
2022/12/25 05:55:39;;;;;;;;;;;;;;;;;;;;;
2022/12/25 06:05:45;;;;;;;12.48;4.72;;;;;;;;;;5696948;24;20030;-87
2022/12/25 06:08:44;;;;;;;13.65;5.30;;;;;;;;;;5754125;24;20191;-89
2022/12/25 06:11:27;;;;;;;12.77;4.55;;;;;;;;;;5750189;24;20064;-89
2022/12/25 06:17:22;;;;;;;16.25;4.75;;;;;;;;;;5807508;24;20017;-91
2022/12/25 06:20:41;;;;;;;;;;;;;;;;;;;;;
2022/12/25 06:27:10;;;;;;;8.98;3.97;;;;;;;;;;5817592;24;20021;-90
2022/12/25 06:33:29;;;;;;;;;;;;;;;;;;;;;
2022/12/25 06:36:24;;;;;;;8.73;3.90;;;;;;;;;;5835099;24;20587;-87
2022/12/25 06:39:20;;;;;;;8.98;3.67;;;;;;;;;;5895432;24;20338;-88
2022/12/25 06:42:03;;;;;;;;;;;;;;;;;;;;;
2022/12/25 06:45:18;;;;;;;8.60;4.07;;;;;;;;;;5968384;23;20787;-89
2022/12/25 06:48:30;;;;;;;8.40;3.90;;;;;;;;;;5953106;23;20019;-89
2022/12/25 06:50:49;;;;;;;10.30;4.50;;;;;;;;;;5973810;23;20015;-88
2022/12/25 06:53:24;;;;;;;11.88;4.82;;;;;;;;;;5953670;23;20050;-89
2022/12/25 07:00:51;;;;;;;10.63;4.03;;;;;;;;;;5966405;23;20582;-89
2022/12/25 07:03:50;;;;;;;9.93;4.03;;;;;;;;;;5922180;23;20421;-88
2022/12/25 07:11:08;;;;;;;;;;;;;;;;;;;;;
2022/12/25 07:25:23;;;;;;;8.55;4.15;;;;;;;;;;5732581;25;20034;-88
2022/12/25 07:52:42;;;;;;;6.15;2.72;;;;;;;;;;5792702;24;20022;-89
2022/12/25 08:48:41;;;;;;;10.32;4.22;;;;;;;;;;5940145;23;20423;-87
2022/12/25 08:51:36;;;;;;;8.82;4.10;;;;;;;;;;5883546;23;20024;-88
2022/12/25 08:54:19;;;;;;;11.63;4.88;;;;;;;;;;5873433;23;20130;-88
2022/12/25 08:56:48;;;;;;;8.93;4.32;;;;;;;;;;5894909;23;20333;-89
2022/12/25 08:59:24;;;;;;;7.70;4.35;;;;;;;;;;5894226;24;20028;-89
2022/12/25 09:01:49;;;;;;;9.63;4.72;;;;;;;;;;5965401;23;20067;-88
2022/12/25 09:04:42;;;;;;;8.18;4.22;;;;;;;;;;5905066;23;20432;-88
2022/12/25 09:07:09;;;;;;;8.88;4.50;;;;;;;;;;5895050;24;20366;-87
2022/12/25 09:09:40;;;;;;;8.13;3.92;;;;;;;;;;5875664;24;20024;-88
2022/12/25 09:12:15;;;;;;;8.23;4.38;;;;;;;;;;5845205;24;20024;-88
2022/12/25 09:14:50;;;;;;;8.27;4.65;;;;;;;;;;5903611;24;20099;-88
2022/12/25 09:17:18;;;;;;;8.43;4.45;;;;;;;;;;5862051;24;20103;-88
2022/12/25 09:19:56;;;;;;;7.57;4.13;;;;;;;;;;5890763;24;20024;-88
2022/12/25 09:22:59;;;;;;;15.50;4.57;;;;;;;;;;5875083;24;20533;-88
2022/12/25 09:25:32;;;;;;;10.75;4.82;;;;;;;;;;5919205;24;20035;-89
2022/12/25 09:27:57;;;;;;;10.40;5.18;;;;;;;;;;5878725;24;20467;-85
2022/12/25 09:30:25;;;;;;;9.65;5.15;;;;;;;;;;5882413;24;20114;-89
2022/12/25 09:33:19;;;;;;;9.98;4.88;;;;;;;;;;5905613;24;20076;-88
2022/12/25 09:36:01;;;;;;;11.32;5.70;;;;;;;;;;5926002;24;20012;-87
2022/12/25 09:38:30;;;;;;;11.15;5.25;;;;;;;;;;5932229;24;20449;-86
2022/12/25 09:41:01;;;;;;;14.35;5.60;;;;;;;;;;5920625;24;20616;-89
2022/12/25 09:43:29;;;;;;;10.20;5.30;;;;;;;;;;5898426;24;20024;-88
2022/12/25 09:45:54;;;;;;;;;;;;;;;;;;5896920;24;20013;-90
2022/12/25 09:48:20;;;;;;;11.95;5.97;;;;;;;;;;5934623;23;20047;-88
2022/12/25 09:50:49;;;;;;;12.13;6.00;;;;;;;;;;5947802;23;20020;-86
2022/12/25 09:53:22;;;;;;;11.77;6.47;;;;;;;;;;5951622;23;20552;-87
2022/12/25 09:56:37;;;;;;;12.27;6.50;;;;;;;;;;5994278;23;20756;-87
2022/12/25 09:59:02;;;;;;;13.15;6.07;;;;;;;;;;5924859;23;20091;-88
2022/12/25 10:01:43;;;;;;;13.88;5.97;;;;;;;;;;5994732;23;20137;-87
2022/12/25 10:04:20;;;;;;;12.65;6.60;;;;;;;;;;5913630;23;20064;-87
2022/12/25 10:14:46;;;;;;;;;;;;;;;;;;;;;
2022/12/25 10:18:02;;;;;;;10.93;6.07;;;;;;;;;;5910845;24;21721;-88
2022/12/25 10:20:44;;;;;;;12.07;5.93;;;;;;;;;;5890644;24;20032;-89
2022/12/25 10:23:27;;;;;;;12.82;6.55;;;;;;;;;;5854838;24;20025;-89
2022/12/25 10:25:54;;;;;;;13.05;5.60;;;;;;;;;;5856516;24;20077;-88
2022/12/25 10:28:24;;;;;;;18.30;6.95;;;;;;;;;;5881917;24;20029;-85
2022/12/25 10:30:51;;;;;;;14.50;6.90;;;;;;;;;;5915339;24;20028;-85
2022/12/25 10:33:16;;;;;;;13.93;6.75;;;;;;;;;;5893341;24;20256;-85
2022/12/25 10:35:42;;;;;;;14.70;7.15;;;;;;;;;;5870442;24;20040;-86
2022/12/25 10:38:13;;;;;;;15.13;7.10;;;;;;;;;;5870316;24;20028;-85
2022/12/25 10:40:57;;;;;;;13.85;6.80;;;;;;;;;;5893536;24;20025;-86
2022/12/25 10:43:37;;;;;;;17.98;7.93;;;;;;;;;;5916656;24;20021;-86
2022/12/25 10:46:09;;;;;;;17.95;8.38;;;;;;;;;;5893220;24;20132;-85
2022/12/25 10:48:34;;;;;;;15.00;8.15;;;;;;;;;;5888639;24;20040;-86
2022/12/25 10:51:06;;;;;;;14.38;7.15;;;;;;;;;;5865012;24;20021;-85
2022/12/25 10:53:38;;;;;;;14.77;7.57;;;;;;;;;;5888982;24;20187;-86
2022/12/25 10:56:05;;;;;;;14.73;7.25;;;;;;;;;;5900313;24;20083;-86
2022/12/25 10:58:31;;;;;;;15.35;7.70;;;;;;;;;;5946276;24;20056;-90
2022/12/25 11:01:02;;;;;;;13.10;6.77;;;;;;;;;;5933895;24;20054;-90
2022/12/25 11:03:34;;;;;;;16.00;8.02;;;;;;;;;;5943812;24;20293;-89
2022/12/25 11:06:03;;;;;;;15.43;7.45;;;;;;;;;;5908678;24;20039;-89
2022/12/25 11:08:32;;;;;;;13.88;6.57;;;;;;;;;;5946321;24;20422;-89
2022/12/25 11:11:09;;;;;;;15.90;8.00;;;;;;;;;;5911982;24;20080;-90
2022/12/25 11:13:38;;;;;;;16.23;7.53;;;;;;;;;;5938589;24;20101;-89
2022/12/25 11:16:14;;;;;;;18.45;8.02;;;;;;;;;;5944319;24;20037;-89
2022/12/25 11:18:48;;;;;;;18.77;8.85;;;;;;;;;;5945414;24;20021;-90
2022/12/25 11:21:24;;;;;;;20.58;9.05;;;;;;;;;;5937729;24;20028;-88
2022/12/25 11:23:56;;;;;;;16.30;8.63;;;;;;;;;;5921815;24;20143;-90
2022/12/25 11:26:21;;;;;;;18.33;8.77;;;;;;;;;;5967343;24;20366;-89
2022/12/25 11:28:49;;;;;;;16.63;7.78;;;;;;;;;;5922399;24;20035;-88
2022/12/25 11:31:18;;;;;;;;;;;;;;;;;;5923077;24;20020;-87
2022/12/25 11:33:57;;;;;;;13.32;6.80;;;;;;;;;;5899820;24;20357;-89
2022/12/25 11:36:49;;;;;;;14.80;7.22;;;;;;;;;;5875217;24;20021;-87
2022/12/25 11:39:23;;;;;;;17.63;8.05;;;;;;;;;;5920910;24;20468;-88
2022/12/25 11:41:58;;;;;;;16.20;7.90;;;;;;;;;;5944615;24;20047;-90
2022/12/25 11:44:29;;;;;;;15.82;7.82;;;;;;;;;;5921855;24;20017;-91
2022/12/25 11:46:56;;;;;;;25.30;10.57;;;;;;;;;;5921687;24;20088;-89
2022/12/25 11:49:21;;;;;;;17.38;8.57;;;;;;;;;;5920877;23;20131;-89
2022/12/25 11:51:49;;;;;;;14.88;7.95;;;;;;;;;;5948931;23;20047;-89
2022/12/25 11:54:32;;;;;;;14.45;7.63;;;;;;;;;;5949478;23;20107;-89
2022/12/25 11:56:59;;;;;;;13.98;7.40;;;;;;;;;;5972151;24;20444;-89
2022/12/25 11:59:30;;;;;;;16.03;8.00;;;;;;;;;;5925854;24;20028;-89
2022/12/25 12:02:26;;;;;;;14.40;8.02;;;;;;;;;;5925454;24;20760;-89
2022/12/25 12:05:03;;;;;;;14.20;8.17;;;;;;;;;;5972488;23;20027;-88
2022/12/25 12:07:29;;;;;;;15.95;8.27;;;;;;;;;;5924589;24;20044;-89
2022/12/25 12:10:10;;;;;;;17.48;8.27;;;;;;;;;;5926644;24;20012;-89
2022/12/25 12:12:39;;;;;;;15.07;7.68;;;;;;;;;;5971617;23;20092;-89
2022/12/25 12:15:15;;;;;;;13.75;8.00;;;;;;;;;;5973438;23;20016;-89
2022/12/25 12:17:41;;;;;;;14.68;7.68;;;;;;;;;;5948303;23;20079;-89
2022/12/25 12:20:27;;;;;;;14.57;7.55;;;;;;;;;;5971285;23;20644;-88
2022/12/25 12:22:52;;;;;;;16.75;7.30;;;;;;;;;;5946635;23;20028;-89
2022/12/25 12:25:18;;;;;;;15.02;6.88;;;;;;;;;;5961892;23;20095;-88
2022/12/25 12:27:44;;;;;;;16.75;6.10;;;;;;;;;;5947842;23;20023;-88
2022/12/25 12:30:28;;;;;;;13.35;6.03;;;;;;;;;;5948765;23;20141;-88
2022/12/25 12:32:57;;;;;;;10.40;5.18;;;;;;;;;;5948721;24;20012;-89
2022/12/25 12:35:28;;;;;;;11.38;5.78;;;;;;;;;;5925366;23;20028;-88
2022/12/25 12:38:01;;;;;;;12.82;5.82;;;;;;;;;;5948242;24;20424;-88
2022/12/25 12:40:38;;;;;;;12.35;5.28;;;;;;;;;;5928716;23;20099;-87
2022/12/25 12:43:06;;;;;;;11.80;5.43;;;;;;;;;;5971193;23;20444;-89
2022/12/25 12:45:33;;;;;;;12.00;5.50;;;;;;;;;;5925223;23;20026;-88
2022/12/25 12:47:59;;;;;;;;;;;;;;;;;;5940426;24;20045;-88
2022/12/25 12:50:29;;;;;;;11.48;5.53;;;;;;;;;;5943900;24;19918;-88
2022/12/25 12:52:55;;;;;;;14.48;5.57;;;;;;;;;;5943606;24;20783;-88
2022/12/25 12:55:34;;;;;;;11.40;6.57;;;;;;;;;;5922653;24;20023;-89
2022/12/25 12:58:04;;;;;;;10.70;5.47;;;;;;;;;;5903592;24;20035;-88
2022/12/25 13:00:53;;;;;;;14.18;6.43;;;;;;;;;;5897416;24;20024;-87
2022/12/25 13:03:27;;;;;;;12.73;6.03;;;;;;;;;;5920985;24;20017;-88
2022/12/25 13:06:16;;;;;;;11.85;5.75;;;;;;;;;;5897765;24;20708;-88
2022/12/25 13:09:15;;;;;;;12.15;5.90;;;;;;;;;;5943729;24;20435;-87
2022/12/25 13:11:42;;;;;;;16.92;7.15;;;;;;;;;;5943577;24;20095;-88
2022/12/25 13:14:21;;;;;;;14.05;6.90;;;;;;;;;;5921108;24;20019;-87
2022/12/25 13:16:48;;;;;;;13.43;6.60;;;;;;;;;;5920002;24;20345;-88
2022/12/25 13:19:21;;;;;;;;;;;;;;;;;;5907976;24;20441;-87
2022/12/25 13:22:04;;;;;;;13.98;6.30;;;;;;;;;;5920110;24;19922;-87
2022/12/25 13:24:34;;;;;;;12.05;6.32;;;;;;;;;;5944227;24;20035;-87
2022/12/25 13:27:14;;;;;;;18.38;9.38;;;;;;;;;;5897285;24;20027;-87
2022/12/25 13:29:40;;;;;;;57.33;22.92;;;;;;;;;;5944046;24;20483;-87
2022/12/25 13:32:07;;;;;;;18.10;8.15;;;;;;;;;;5897244;24;20108;-87
2022/12/25 13:34:37;;;;;;;16.80;7.30;;;;;;;;;;5921194;24;20020;-87
2022/12/25 13:37:12;;;;;;;12.82;6.10;;;;;;;;;;5920393;24;20021;-87
2022/12/25 13:39:57;;;;;;;14.02;6.15;;;;;;;;;;5922375;24;20023;-88
2022/12/25 13:42:26;;;;;;;11.68;5.63;;;;;;;;;;5945584;24;20099;-88
2022/12/25 13:44:56;;;;;;;11.02;5.97;;;;;;;;;;5923268;24;20091;-88
2022/12/25 13:47:35;;;;;;;10.27;5.30;;;;;;;;;;5898981;23;20429;-88
2022/12/25 13:50:15;;;;;;;13.05;5.68;;;;;;;;;;5899652;24;20197;-87
2022/12/25 13:52:43;;;;;;;13.00;5.57;;;;;;;;;;5944946;24;20120;-88
2022/12/25 13:55:11;;;;;;;11.50;5.88;;;;;;;;;;5968035;24;20017;-87
2022/12/25 13:57:39;;;;;;;14.55;6.30;;;;;;;;;;5945373;24;20024;-87
2022/12/25 14:00:07;;;;;;;13.35;5.70;;;;;;;;;;5945787;24;20088;-87
2022/12/25 14:02:36;;;;;;;12.93;5.60;;;;;;;;;;5944555;24;20089;-87
2022/12/25 14:05:03;;;;;;;10.73;5.70;;;;;;;;;;5922394;24;20047;-87
2022/12/25 14:07:29;;;;;;;12.55;5.75;;;;;;;;;;5945814;24;20369;-88
2022/12/25 14:09:59;;;;;;;18.70;7.53;;;;;;;;;;5922471;24;20017;-88
2022/12/25 14:12:27;;;;;;;12.50;5.07;;;;;;;;;;5899412;24;20153;-87
2022/12/25 14:14:52;;;;;;;8.80;4.88;;;;;;;;;;5900210;24;20497;-88
2022/12/25 14:17:18;;;;;;;8.68;5.40;;;;;;;;;;5898963;24;20123;-87
2022/12/25 14:19:43;;;;;;;10.10;5.35;;;;;;;;;;5933712;24;20063;-88
2022/12/25 14:22:17;;;;;;;10.32;5.25;;;;;;;;;;5898429;24;20025;-89
2022/12/25 14:24:43;;;;;;;12.82;5.93;;;;;;;;;;5907746;24;20517;-87
2022/12/25 14:27:22;;;;;;;14.13;6.53;;;;;;;;;;5886439;24;20044;-89
2022/12/25 14:29:52;;;;;;;16.42;7.18;;;;;;;;;;5906568;24;20017;-89
2022/12/25 14:32:26;;;;;;;12.77;6.63;;;;;;;;;;5920167;24;20020;-90
2022/12/25 14:34:54;;;;;;;14.52;6.70;;;;;;;;;;5922345;24;20020;-90
2022/12/25 14:37:24;;;;;;;14.82;6.55;;;;;;;;;;5885097;24;20025;-90
2022/12/25 14:40:18;;;;;;;10.63;5.90;;;;;;;;;;5900412;24;21660;-90
2022/12/25 14:43:07;;;;;;;12.05;6.25;;;;;;;;;;5962346;24;20715;-91
2022/12/25 14:45:37;;;;;;;15.75;6.28;;;;;;;;;;5879622;24;20020;-92
2022/12/25 14:48:23;;;;;;;14.30;6.25;;;;;;;;;;5928566;24;20028;-92
2022/12/25 14:50:59;;;;;;;14.38;6.63;;;;;;;;;;5945746;24;20024;-91
2022/12/25 14:53:39;;;;;;;12.10;6.03;;;;;;;;;;5945802;24;20472;-86
2022/12/25 14:56:09;;;;;;;18.58;7.65;;;;;;;;;;5899145;24;20370;-88
2022/12/25 14:58:40;;;;;;;16.13;7.47;;;;;;;;;;5931655;24;20099;-88
2022/12/25 15:01:14;;;;;;;34.30;13.63;;;;;;;;;;5896247;24;20048;-90
2022/12/25 15:03:40;;;;;;;20.75;8.93;;;;;;;;;;5940923;24;20020;-88
2022/12/25 15:06:23;;;;;;;13.20;5.85;;;;;;;;;;5924265;23;20324;-89
2022/12/25 15:09:05;;;;;;;17.20;6.78;;;;;;;;;;5922775;23;20020;-88
2022/12/25 15:11:41;;;;;;;14.85;6.43;;;;;;;;;;5862766;24;20025;-90
2022/12/25 15:14:07;;;;;;;17.15;7.05;;;;;;;;;;5922228;24;20017;-89
2022/12/25 15:16:52;;;;;;;12.98;6.75;;;;;;;;;;5925626;23;20064;-89
2022/12/25 15:19:26;;;;;;;12.93;6.03;;;;;;;;;;5897783;23;20048;-88
2022/12/25 15:21:51;;;;;;;12.13;6.07;;;;;;;;;;5967282;23;20448;-87
2022/12/25 15:24:17;;;;;;;14.98;6.55;;;;;;;;;;5922189;24;20044;-88
2022/12/25 15:26:42;;;;;;;15.73;6.65;;;;;;;;;;5923699;24;20093;-88
2022/12/25 15:29:11;;;;;;;16.58;7.07;;;;;;;;;;5922893;24;20036;-91
2022/12/25 15:31:41;;;;;;;15.30;6.43;;;;;;;;;;5971893;23;20024;-92
2022/12/25 15:34:23;;;;;;;11.48;5.88;;;;;;;;;;5923823;24;20040;-90
2022/12/25 15:36:56;;;;;;;13.35;6.57;;;;;;;;;;5933068;23;20084;-91
2022/12/25 15:39:38;;;;;;;15.23;6.72;;;;;;;;;;5941836;23;20896;-91
2022/12/25 15:42:34;;;;;;;10.65;6.15;;;;;;;;;;5949942;23;20020;-93
2022/12/25 15:48:10;;;;;;;15.85;6.93;;;;;;;;;;5984668;23;20261;-92
2022/12/25 15:50:36;;;;;;;12.40;6.20;;;;;;;;;;5959872;23;20137;-91
2022/12/25 15:53:02;;;;;;;11.38;6.03;;;;;;;;;;5963966;23;20039;-83
2022/12/25 15:55:27;;;;;;;14.55;6.90;;;;;;;;;;5976393;23;20045;-84
2022/12/25 15:57:54;;;;;;;18.60;8.10;;;;;;;;;;5956868;23;20008;-94
2022/12/25 16:00:32;;;;;;;16.05;6.50;;;;;;;;;;5931615;23;21497;-93
2022/12/25 16:03:07;;;;;;;13.02;6.18;;;;;;;;;;5948434;23;20548;-93
2022/12/25 16:05:38;;;;;;;13.88;6.03;;;;;;;;;;5911862;23;20020;-93
2022/12/25 16:08:28;;;;;;;15.85;7.13;;;;;;;;;;5979024;23;20019;-96
2022/12/25 16:11:05;;;;;;;16.98;6.80;;;;;;;;;;5928510;23;20027;-94
2022/12/25 16:13:57;;;;;;;13.57;6.90;;;;;;;;;;5946366;23;20022;-93
2022/12/25 16:16:31;;;;;;;14.98;7.55;;;;;;;;;;5950220;23;20476;-93
2022/12/25 16:18:56;;;;;;;13.70;7.28;;;;;;;;;;5940895;23;20440;-92
2022/12/25 16:21:22;;;;;;;13.00;6.65;;;;;;;;;;6003134;23;20023;-91
2022/12/25 16:23:48;;;;;;;15.32;6.80;;;;;;;;;;5969706;23;20400;-91
2022/12/25 16:26:32;;;;;;;14.85;6.85;;;;;;;;;;5967328;23;20014;-93
2022/12/25 16:28:58;;;;;;;16.17;6.68;;;;;;;;;;5949746;23;20099;-86
2022/12/25 16:31:23;;;;;;;15.65;6.72;;;;;;;;;;5985941;23;20388;-90
2022/12/25 16:33:48;;;;;;;13.40;6.93;;;;;;;;;;5968549;23;20148;-81
2022/12/25 16:36:14;;;;;;;12.30;6.60;;;;;;;;;;5981152;23;20012;-89
2022/12/25 16:38:39;;;;;;;13.82;7.28;;;;;;;;;;6005728;23;20026;-90
2022/12/25 16:41:05;;;;;;;11.85;6.75;;;;;;;;;;5968810;23;20055;-84
2022/12/25 16:43:30;;;;;;;12.88;6.28;;;;;;;;;;5971724;23;20021;-85
2022/12/25 16:45:56;;;;;;;15.98;7.28;;;;;;;;;;5985826;23;20023;-86
2022/12/25 16:48:22;;;;;;;14.68;6.65;;;;;;;;;;6009921;23;20130;-86
2022/12/25 16:50:47;;;;;;;16.95;6.45;;;;;;;;;;6006505;23;20042;-86
2022/12/25 16:53:13;;;;;;;13.65;6.97;;;;;;;;;;6017374;23;20022;-85
2022/12/25 16:55:41;;;;;;;12.27;6.30;;;;;;;;;;6016475;23;20050;-94
2022/12/25 16:58:06;;;;;;;16.33;6.97;;;;;;;;;;6027190;23;20023;-88
2022/12/25 17:00:32;;;;;;;16.73;7.97;;;;;;;;;;6010530;23;20029;-88
2022/12/25 17:02:59;;;;;;;12.75;6.15;;;;;;;;;;6010039;23;20026;-88
2022/12/25 17:05:24;;;;;;;12.38;6.65;;;;;;;;;;6033073;23;20018;-88
2022/12/25 17:07:50;;;;;;;13.52;6.78;;;;;;;;;;6010257;23;20976;-88
2022/12/25 17:10:16;;;;;;;17.33;6.53;;;;;;;;;;6032604;23;20019;-89
2022/12/25 17:12:44;;;;;;;17.00;6.70;;;;;;;;;;6010742;23;20292;-88
2022/12/25 17:15:10;;;;;;;12.45;6.22;;;;;;;;;;6033660;23;20090;-88
2022/12/25 17:17:35;;;;;;;12.05;6.00;;;;;;;;;;6009144;23;20034;-89
2022/12/25 17:20:00;;;;;;;14.30;5.93;;;;;;;;;;6009226;23;20538;-90
2022/12/25 17:22:26;;;;;;;16.50;6.78;;;;;;;;;;6009670;23;20034;-88
2022/12/25 17:24:51;;;;;;;16.38;6.75;;;;;;;;;;6033813;23;20446;-88
2022/12/25 17:27:17;;;;;;;14.52;6.85;;;;;;;;;;6012123;23;20026;-87
2022/12/25 17:29:42;;;;;;;14.82;7.18;;;;;;;;;;6010102;23;20409;-86
2022/12/25 17:32:09;;;;;;;14.88;7.40;;;;;;;;;;5996791;23;20042;-89
2022/12/25 17:34:36;;;;;;;17.00;7.65;;;;;;;;;;6011107;23;20018;-88
2022/12/25 17:37:01;;;;;;;14.27;6.93;;;;;;;;;;6008540;23;20359;-89
2022/12/25 17:39:27;;;;;;;17.20;8.10;;;;;;;;;;5998313;23;20015;-90
2022/12/25 17:41:52;;;;;;;15.20;6.97;;;;;;;;;;6007423;23;20018;-88
2022/12/25 17:44:19;;;;;;;14.35;7.10;;;;;;;;;;6010880;23;20022;-90
2022/12/25 17:46:45;;;;;;;19.88;6.93;;;;;;;;;;6013563;23;20031;-90
2022/12/25 17:49:18;;;;;;;15.10;7.97;;;;;;;;;;6011915;23;20403;-91
2022/12/25 17:51:43;;;;;;;11.70;6.50;;;;;;;;;;6035257;23;20045;-89
2022/12/25 17:54:09;;;;;;;16.00;6.32;;;;;;;;;;6034580;23;20384;-89
2022/12/25 17:56:34;;;;;;;14.00;6.70;;;;;;;;;;6033990;23;20019;-89
2022/12/25 17:59:12;;;;;;;14.77;7.03;;;;;;;;;;6036962;23;20378;-90
2022/12/25 18:01:38;;;;;;;12.05;6.75;;;;;;;;;;6014270;23;20027;-90
2022/12/25 18:04:07;;;;;;;21.73;8.07;;;;;;;;;;6001891;23;20343;-90
2022/12/25 18:06:34;;;;;;;13.25;7.35;;;;;;;;;;6032953;23;20022;-89
2022/12/25 18:09:00;;;;;;;16.07;7.50;;;;;;;;;;6036564;23;20015;-91
2022/12/25 18:11:31;;;;;;;15.05;6.82;;;;;;;;;;6039023;23;20023;-92
2022/12/25 18:14:03;;;;;;;13.75;6.95;;;;;;;;;;6039821;23;20569;-91
2022/12/25 18:16:31;;;;;;;14.10;6.93;;;;;;;;;;5997283;23;20078;-91
2022/12/25 18:18:58;;;;;;;12.85;6.80;;;;;;;;;;6010120;23;20007;-88
2022/12/25 18:21:24;;;;;;;18.65;7.30;;;;;;;;;;6008888;23;20030;-88
2022/12/25 18:23:50;;;;;;;14.63;7.15;;;;;;;;;;6033567;23;20023;-88
2022/12/25 18:26:15;;;;;;;16.55;7.22;;;;;;;;;;6037036;23;20087;-84
2022/12/25 18:28:41;;;;;;;14.38;6.82;;;;;;;;;;6035317;23;20335;-90
2022/12/25 18:31:15;;;;;;;15.95;7.25;;;;;;;;;;6010230;23;20424;-90
2022/12/25 18:33:42;;;;;;;15.45;7.63;;;;;;;;;;6036237;23;20090;-89
2022/12/25 18:36:07;;;;;;;14.52;7.90;;;;;;;;;;6034992;23;20093;-90
2022/12/25 18:38:33;;;;;;;19.33;7.85;;;;;;;;;;6035641;23;20404;-91
2022/12/25 18:40:58;;;;;;;14.65;7.68;;;;;;;;;;6024940;23;20019;-90
2022/12/25 18:43:24;;;;;;;16.02;7.15;;;;;;;;;;6012113;23;20097;-89
2022/12/25 18:45:56;;;;;;;12.60;7.40;;;;;;;;;;6010953;23;20085;-89
2022/12/25 18:48:22;;;;;;;14.80;7.57;;;;;;;;;;6034307;23;20086;-89
2022/12/25 18:50:53;;;;;;;15.35;7.65;;;;;;;;;;6033780;23;20014;-88
2022/12/25 18:53:19;;;;;;;15.93;7.53;;;;;;;;;;6011793;23;20510;-91
2022/12/25 18:55:44;;;;;;;14.35;7.57;;;;;;;;;;6010783;23;20089;-90
2022/12/25 18:58:09;;;;;;;14.20;7.60;;;;;;;;;;6012549;23;20018;-88
2022/12/25 19:00:35;;;;;;;16.05;7.72;;;;;;;;;;6010984;23;20019;-89
2022/12/25 19:03:00;;;;;;;14.95;7.60;;;;;;;;;;6012137;23;20326;-88
2022/12/25 19:05:26;;;;;;;14.25;7.30;;;;;;;;;;6058744;23;20026;-88
2022/12/25 19:07:51;;;;;;;16.45;7.55;;;;;;;;;;6033939;23;20474;-90
2022/12/25 19:10:17;;;;;;;16.00;8.57;;;;;;;;;;6035939;23;20281;-94
2022/12/25 19:12:46;;;;;;;16.55;7.90;;;;;;;;;;6012846;23;20105;-92
2022/12/25 19:15:11;;;;;;;16.33;8.02;;;;;;;;;;6036893;23;20619;-92
2022/12/25 19:17:40;;;;;;;16.05;7.63;;;;;;;;;;5990861;23;20081;-92
2022/12/25 19:20:06;;;;;;;15.23;8.07;;;;;;;;;;6005115;23;20019;-89
2022/12/25 19:22:32;;;;;;;13.55;7.03;;;;;;;;;;6010014;23;20392;-88
2022/12/25 19:24:57;;;;;;;18.70;8.50;;;;;;;;;;6012251;23;20018;-89
2022/12/25 19:27:23;;;;;;;18.42;9.13;;;;;;;;;;6010682;23;20109;-91
2022/12/25 19:29:59;;;;;;;13.63;8.27;;;;;;;;;;6012882;23;20094;-88
2022/12/25 19:32:25;;;;;;;19.50;8.25;;;;;;;;;;6034103;23;20019;-93
2022/12/25 19:34:51;;;;;;;16.27;8.18;;;;;;;;;;6037427;23;21227;-90
2022/12/25 19:37:19;;;;;;;15.15;7.93;;;;;;;;;;6010669;23;20026;-90
2022/12/25 19:39:47;;;;;;;15.10;7.75;;;;;;;;;;6012237;23;20062;-89
2022/12/25 19:42:14;;;;;;;15.38;7.60;;;;;;;;;;6034627;23;20078;-92
2022/12/25 19:44:40;;;;;;;17.38;8.70;;;;;;;;;;6012101;23;20014;-91
2022/12/25 19:47:07;;;;;;;14.18;7.50;;;;;;;;;;6033111;23;20062;-89
2022/12/25 19:49:33;;;;;;;15.95;7.63;;;;;;;;;;6035814;23;20018;-89
2022/12/25 19:51:58;;;;;;;15.55;7.97;;;;;;;;;;6012273;23;20014;-89
2022/12/25 19:54:28;;;;;;;16.55;8.25;;;;;;;;;;6037714;23;20537;-90
2022/12/25 19:56:53;;;;;;;15.50;7.68;;;;;;;;;;6034544;23;20014;-89
2022/12/25 19:59:19;;;;;;;15.13;8.05;;;;;;;;;;6034654;23;20014;-89
2022/12/25 20:01:44;;;;;;;16.83;8.40;;;;;;;;;;6033025;23;20019;-87
2022/12/25 20:04:10;;;;;;;18.55;8.05;;;;;;;;;;6010689;23;20023;-89